METAR

METAR LDZA 260700Z VRB02KT CAVOK 07/05 Q1039 NOSIG =
METAR LDSP 260700Z 03012KT 350V070 CAVOK 15/M01 Q1034 TEMPO 04015G28KT=
METAR LDDU 260700Z 07019G32KT 020V110 CAVOK 14/M05 Q1030 WS R12 BECMG FM0800 03015KT =
METAR LDZD 260700Z 05010KT 360V110 9999 FEW045 14/M02 Q1036 NOSIG =
METAR LDPL 260700Z 06017KT CAVOK 13/00 Q1037 NOSIG=
METAR LDOS 260700Z 35004KT 300V060 CAVOK 08/05 Q1039=
METAR LDSB 260700Z 03014KT 360V070 CAVOK 10/M02 Q1032=
METAR COR LDRI 260700Z 25008KT 210V310 9999 FEW043 12/01 Q1038=

TAF

TAF LDZA 260525Z 2606/2706 05005KT CAVOK
                 TX14/2614Z TN01/2704Z=
TAF LDSP 260525Z 2606/2706 04012KT CAVOK
                 TX21/2613Z TN11/2704Z
           TEMPO 2606/2611 04018G30KT=
TAF LDDU 260525Z 2606/2706 02025G40KT CAVOK
                 TX21/2613Z TN12/2704Z
           BECMG 2608/2610 02015KT
    PROB40 TEMPO 2609/2616 VRB18G30KT
           TEMPO 2616/2623 02020G33KT=
TAF LDZD 260525Z 2606/2706 06008KT CAVOK
                 TX20/2613Z TN07/2704Z
           TEMPO 2606/2611 06015G25KT=
TAF LDPL 260525Z 2606/2706 06015KT CAVOK
                 TX19/2613Z TN10/2704Z
    PROB30 TEMPO 2606/2609 06018G28KT
           BECMG 2612/2614 06008KT
           BECMG 2614/2616 VRB02KT=
TAF LDOS 260525Z 2606/2706 33008KT CAVOK
                 TX16/2612Z TN02/2704Z
           BECMG 2607/2609 03005KT=
TAF LDSB 260612Z 2607/2706 04015KT CAVOK
                 TX20/2613Z TN08/2704Z=
TAF LDRI 260525Z 2606/2709 06010G25KT CAVOK
                 TX18/2613Z TN11/2703Z
    PROB30 TEMPO 2606/2609 VRB10KT
           BECMG 2609/2611 06005KT=

SIGMET

LDZO SIGMET 6 VALID 260600/260900 LDZA-
LDZO ZAGREB FIR SEV TURB OBS WI N4235 E01835 - N4123 E01819 - N4218
E01615 - N4314 E01453 - N4411 E01614 - N4235 E01835 FL230/420 STNR
NC=
LDZO SIGMET 8 VALID 260700/261000 LDZA-
LDZO ZAGREB FIR SEV TURB FCST WI N4508 E01310 - N4536 E01433 - N4227
E01832 - N4126 E01819 - N4508 E01310 SFC/6000FT STNR NC=

AIRMET

LDZO AIRMET 1 VALID 260534/260900 LDZA-
LDZO ZAGREB FIR MOD MTW FCST SW OF LINE N4526 E01513 - N4500 E01544
ABV 6000FT STNR NC=

Napomena

Ukoliko se brzina i smjer vjetra ne mogu odrediti zbog privremenog kvara sustava/indikatora,
informacija o vjetru u METAR izvješću bit će prikazana kao "/////KT".

 

Disclaimer

 

In case of temporary system/sensor failure, wind speed and direction data will be represented as "/////KT" in METAR report.

 

         

      Politika MET podataka